CFG521 EDDF-BIKF
Flight info
| Callsign | CFG521 |
|---|---|
| Flight time | N/A |
| Altitude | 32000 |
| Route | OBOKA3M/25C OBOKA Z28 DIBIR DCT BUDIP DCT GODOS DCT ATSIX/M077F320 DCT ALDAN DCT ASRUN ASRUN4N |
| Aircraft | A321/M-SDE3FGHIRWY/LB1 |
Departure
| Time | N/A |
|---|---|
| Airport | Frankfurt Main Airport (EDDF) |
Arrival
| Time | 2026-05-05 20:02 |
|---|---|
| Airport | Keflavik International Airport (BIKF) |
| Time | Latitude | Longitude | Altitude | Speed | Heading |
|---|---|---|---|---|---|
| 2026-05-05 16:53 | 50.82502 | 7.15855 | 24118 ft | 441 kts | 303° |
| 2026-05-05 16:53 | 50.84272 | 7.11881 | 24404 ft | 443 kts | 303° |
| 2026-05-05 16:54 | 50.86051 | 7.07881 | 24702 ft | 445 kts | 303° |
| 2026-05-05 16:54 | 50.87834 | 7.03866 | 24994 ft | 447 kts | 303° |
| 2026-05-05 16:54 | 50.89602 | 6.99881 | 25264 ft | 449 kts | 303° |
| 2026-05-05 16:54 | 50.91402 | 6.95820 | 25528 ft | 451 kts | 303° |
| 2026-05-05 16:55 | 50.93209 | 6.91733 | 25829 ft | 453 kts | 303° |
| 2026-05-05 16:55 | 50.95016 | 6.87639 | 26127 ft | 454 kts | 303° |
| 2026-05-05 16:55 | 50.96833 | 6.83525 | 26424 ft | 456 kts | 303° |
| 2026-05-05 16:55 | 50.98656 | 6.79394 | 26704 ft | 458 kts | 302° |
| 2026-05-05 16:56 | 51.00482 | 6.75244 | 26969 ft | 459 kts | 302° |
| 2026-05-05 16:56 | 51.02312 | 6.71077 | 27230 ft | 461 kts | 302° |
| 2026-05-05 16:56 | 51.04152 | 6.66871 | 27483 ft | 463 kts | 302° |
| 2026-05-05 16:56 | 51.05987 | 6.62664 | 27753 ft | 464 kts | 302° |
| 2026-05-05 16:57 | 51.07829 | 6.58434 | 28061 ft | 465 kts | 302° |
| 2026-05-05 16:57 | 51.09646 | 6.54258 | 28359 ft | 466 kts | 302° |
| 2026-05-05 16:57 | 51.11492 | 6.50004 | 28642 ft | 467 kts | 302° |
| 2026-05-05 16:57 | 51.13340 | 6.45750 | 29021 ft | 467 kts | 302° |
| 2026-05-05 16:58 | 51.15188 | 6.41497 | 29443 ft | 466 kts | 302° |
| 2026-05-05 16:58 | 51.17024 | 6.37265 | 29843 ft | 464 kts | 302° |
| 2026-05-05 16:58 | 51.18853 | 6.33041 | 30202 ft | 462 kts | 301° |
| 2026-05-05 16:58 | 51.20673 | 6.28828 | 30502 ft | 461 kts | 301° |
| 2026-05-05 16:59 | 51.22488 | 6.24617 | 30770 ft | 461 kts | 301° |
| 2026-05-05 16:59 | 51.24302 | 6.20394 | 31034 ft | 461 kts | 301° |
| 2026-05-05 16:59 | 51.26108 | 6.16173 | 31340 ft | 460 kts | 301° |
| 2026-05-05 16:59 | 51.27910 | 6.11953 | 31664 ft | 459 kts | 301° |
| 2026-05-05 17:00 | 51.29690 | 6.07728 | 31839 ft | 458 kts | 300° |
| 2026-05-05 17:00 | 51.31440 | 6.03487 | 31874 ft | 454 kts | 300° |
| 2026-05-05 17:00 | 51.34859 | 5.95037 | 31877 ft | 452 kts | 299° |
| 2026-05-05 17:01 | 51.38616 | 5.86959 | 31880 ft | 457 kts | 312° |
| 2026-05-05 17:01 | 51.43555 | 5.80473 | 31883 ft | 460 kts | 320° |
| 2026-05-05 17:02 | 51.48579 | 5.74252 | 31898 ft | 458 kts | 319° |
| 2026-05-05 17:02 | 51.53612 | 5.67967 | 31891 ft | 458 kts | 319° |
| 2026-05-05 17:03 | 51.58643 | 5.61662 | 31884 ft | 459 kts | 319° |
| 2026-05-05 17:03 | 51.63677 | 5.55349 | 31884 ft | 459 kts | 319° |
| 2026-05-05 17:04 | 51.68711 | 5.49025 | 31891 ft | 459 kts | 319° |
| 2026-05-05 17:04 | 51.73740 | 5.42683 | 31892 ft | 459 kts | 318° |
| 2026-05-05 17:05 | 51.78769 | 5.36323 | 31889 ft | 459 kts | 318° |
| 2026-05-05 17:05 | 51.83792 | 5.29956 | 31892 ft | 459 kts | 319° |
| 2026-05-05 17:06 | 51.88822 | 5.23567 | 31889 ft | 460 kts | 319° |
| 2026-05-05 17:06 | 51.93842 | 5.17171 | 31878 ft | 459 kts | 319° |
| 2026-05-05 17:07 | 51.98818 | 5.10809 | 31891 ft | 458 kts | 319° |
| 2026-05-05 17:07 | 52.03813 | 5.04394 | 31895 ft | 458 kts | 318° |
| 2026-05-05 17:08 | 52.08808 | 4.97966 | 31898 ft | 457 kts | 318° |
| 2026-05-05 17:08 | 52.13790 | 4.91532 | 31911 ft | 457 kts | 318° |
| 2026-05-05 17:09 | 52.18771 | 4.85060 | 31914 ft | 458 kts | 318° |
| 2026-05-05 17:09 | 52.23759 | 4.78573 | 31916 ft | 458 kts | 317° |
| 2026-05-05 17:10 | 52.28745 | 4.72090 | 31914 ft | 458 kts | 317° |
| 2026-05-05 17:10 | 52.33726 | 4.65603 | 31911 ft | 458 kts | 317° |
| 2026-05-05 17:11 | 52.38703 | 4.59087 | 31907 ft | 458 kts | 317° |
| 2026-05-05 17:11 | 52.43674 | 4.52554 | 31920 ft | 458 kts | 317° |
| 2026-05-05 17:12 | 52.48602 | 4.46058 | 31942 ft | 457 kts | 317° |
| 2026-05-05 17:12 | 52.53549 | 4.39524 | 31944 ft | 455 kts | 317° |
| 2026-05-05 17:13 | 52.58401 | 4.33098 | 31947 ft | 455 kts | 317° |
| 2026-05-05 17:13 | 52.63314 | 4.26563 | 31951 ft | 454 kts | 316° |
| 2026-05-05 17:14 | 52.68226 | 4.20018 | 31949 ft | 454 kts | 316° |
| 2026-05-05 17:14 | 52.73127 | 4.13460 | 31970 ft | 453 kts | 316° |
| 2026-05-05 17:15 | 52.77973 | 4.06952 | 31962 ft | 451 kts | 316° |
| 2026-05-05 17:15 | 52.82839 | 4.00403 | 31975 ft | 451 kts | 316° |
| 2026-05-05 17:16 | 52.87709 | 3.93835 | 31973 ft | 450 kts | 316° |
| 2026-05-05 17:16 | 52.92560 | 3.87275 | 31967 ft | 450 kts | 316° |
| 2026-05-05 17:17 | 52.97410 | 3.80685 | 31987 ft | 450 kts | 316° |
| 2026-05-05 17:17 | 53.02244 | 3.74107 | 31987 ft | 449 kts | 316° |
| 2026-05-05 17:18 | 53.07068 | 3.67521 | 31979 ft | 448 kts | 316° |
| 2026-05-05 17:18 | 53.11881 | 3.60913 | 31985 ft | 448 kts | 316° |
| 2026-05-05 17:19 | 53.16655 | 3.54356 | 31992 ft | 448 kts | 316° |
| 2026-05-05 17:19 | 53.21456 | 3.47737 | 32001 ft | 447 kts | 316° |
| 2026-05-05 17:20 | 53.26206 | 3.41073 | 31994 ft | 445 kts | 315° |
| 2026-05-05 17:20 | 53.30821 | 3.34194 | 31995 ft | 443 kts | 313° |
| 2026-05-05 17:21 | 53.35354 | 3.27220 | 31981 ft | 442 kts | 313° |
| 2026-05-05 17:22 | 53.41385 | 3.17929 | 31981 ft | 442 kts | 313° |
| 2026-05-05 17:22 | 53.45930 | 3.10969 | 31977 ft | 442 kts | 313° |
| 2026-05-05 17:23 | 53.50476 | 3.04007 | 31979 ft | 442 kts | 313° |
| 2026-05-05 17:23 | 53.55018 | 2.97027 | 31977 ft | 442 kts | 313° |
| 2026-05-05 17:24 | 53.59558 | 2.90036 | 31976 ft | 442 kts | 313° |
| 2026-05-05 17:24 | 53.64059 | 2.83068 | 31974 ft | 442 kts | 313° |
| 2026-05-05 17:25 | 53.68574 | 2.76038 | 31972 ft | 442 kts | 313° |
| 2026-05-05 17:25 | 53.73092 | 2.69000 | 31992 ft | 442 kts | 313° |
| 2026-05-05 17:26 | 53.77609 | 2.61962 | 31991 ft | 441 kts | 313° |
| 2026-05-05 17:26 | 53.82113 | 2.54919 | 31997 ft | 440 kts | 313° |
| 2026-05-05 17:27 | 53.86598 | 2.47861 | 31991 ft | 440 kts | 313° |
| 2026-05-05 17:27 | 53.91081 | 2.40794 | 31986 ft | 440 kts | 313° |
| 2026-05-05 17:28 | 53.95532 | 2.33758 | 31983 ft | 440 kts | 313° |
| 2026-05-05 17:28 | 54.00009 | 2.26659 | 31993 ft | 440 kts | 313° |
| 2026-05-05 17:29 | 54.04477 | 2.19542 | 31993 ft | 440 kts | 313° |
| 2026-05-05 17:29 | 54.08942 | 2.12403 | 31988 ft | 440 kts | 313° |
| 2026-05-05 17:30 | 54.13405 | 2.05268 | 31977 ft | 440 kts | 314° |
| 2026-05-05 17:30 | 54.17848 | 1.98151 | 31974 ft | 440 kts | 314° |
| 2026-05-05 17:31 | 54.22311 | 1.90967 | 31977 ft | 441 kts | 314° |
| 2026-05-05 17:31 | 54.26772 | 1.83762 | 31984 ft | 441 kts | 314° |
| 2026-05-05 17:32 | 54.31228 | 1.76528 | 31984 ft | 441 kts | 314° |
| 2026-05-05 17:32 | 54.35648 | 1.69331 | 31990 ft | 441 kts | 314° |
| 2026-05-05 17:33 | 54.40096 | 1.62077 | 31986 ft | 441 kts | 314° |
| 2026-05-05 17:33 | 54.44536 | 1.54812 | 31992 ft | 441 kts | 314° |
| 2026-05-05 17:34 | 54.48973 | 1.47528 | 32007 ft | 441 kts | 314° |
| 2026-05-05 17:34 | 54.53409 | 1.40231 | 32015 ft | 440 kts | 313° |
| 2026-05-05 17:35 | 54.57828 | 1.32933 | 32012 ft | 439 kts | 313° |
| 2026-05-05 17:35 | 54.62236 | 1.25623 | 32013 ft | 439 kts | 313° |
| 2026-05-05 17:36 | 54.66603 | 1.18366 | 32013 ft | 439 kts | 313° |
| 2026-05-05 17:36 | 54.70998 | 1.11042 | 32011 ft | 438 kts | 313° |
| 2026-05-05 17:37 | 54.75392 | 1.03697 | 32037 ft | 438 kts | 313° |
| 2026-05-05 17:37 | 54.79758 | 0.96363 | 32040 ft | 436 kts | 312° |
| 2026-05-05 17:38 | 54.84108 | 0.89044 | 32038 ft | 435 kts | 312° |
| 2026-05-05 17:38 | 54.88443 | 0.81722 | 32040 ft | 434 kts | 312° |
| 2026-05-05 17:39 | 54.92766 | 0.74400 | 32032 ft | 433 kts | 312° |
| 2026-05-05 17:39 | 54.97075 | 0.67078 | 32031 ft | 433 kts | 312° |
| 2026-05-05 17:40 | 55.01375 | 0.59733 | 32053 ft | 433 kts | 311° |
| 2026-05-05 17:40 | 55.05660 | 0.52390 | 32062 ft | 431 kts | 311° |
| 2026-05-05 17:41 | 55.09907 | 0.45100 | 32062 ft | 430 kts | 311° |
| 2026-05-05 17:41 | 55.14171 | 0.37780 | 32056 ft | 429 kts | 311° |
| 2026-05-05 17:42 | 55.18424 | 0.30425 | 32052 ft | 429 kts | 311° |
| 2026-05-05 17:42 | 55.22631 | 0.23132 | 32048 ft | 428 kts | 311° |
| 2026-05-05 17:43 | 55.26869 | 0.15782 | 32089 ft | 428 kts | 310° |
| 2026-05-05 17:43 | 55.31089 | 0.08415 | 32076 ft | 427 kts | 310° |
| 2026-05-05 17:44 | 55.35296 | 0.01050 | 32085 ft | 426 kts | 310° |
| 2026-05-05 17:44 | 55.39488 | -0.06306 | 32075 ft | 426 kts | 310° |
| 2026-05-05 17:45 | 55.43682 | -0.13674 | 32057 ft | 426 kts | 310° |
| 2026-05-05 17:45 | 55.47876 | -0.21065 | 32055 ft | 426 kts | 310° |
| 2026-05-05 17:46 | 55.52059 | -0.28476 | 32055 ft | 426 kts | 310° |
| 2026-05-05 17:46 | 55.56216 | -0.35865 | 32074 ft | 426 kts | 310° |
| 2026-05-05 17:47 | 55.60396 | -0.43313 | 32074 ft | 426 kts | 310° |
| 2026-05-05 17:47 | 55.64567 | -0.50770 | 32075 ft | 426 kts | 310° |
| 2026-05-05 17:48 | 55.68731 | -0.58244 | 32074 ft | 426 kts | 310° |
| 2026-05-05 17:48 | 55.72889 | -0.65727 | 32072 ft | 426 kts | 310° |
| 2026-05-05 17:49 | 55.77039 | -0.73232 | 32076 ft | 426 kts | 310° |
| 2026-05-05 17:49 | 55.81166 | -0.80704 | 32103 ft | 426 kts | 311° |
| 2026-05-05 17:50 | 55.85311 | -0.88222 | 32099 ft | 425 kts | 310° |
| 2026-05-05 17:50 | 55.89438 | -0.95753 | 32097 ft | 425 kts | 310° |
| 2026-05-05 17:51 | 55.93561 | -1.03297 | 32096 ft | 424 kts | 310° |
| 2026-05-05 17:51 | 55.97671 | -1.10845 | 32091 ft | 424 kts | 310° |
| 2026-05-05 17:52 | 56.01780 | -1.18415 | 32100 ft | 424 kts | 310° |
| 2026-05-05 17:52 | 56.05884 | -1.25992 | 32099 ft | 424 kts | 310° |
| 2026-05-05 17:53 | 56.09978 | -1.33576 | 32101 ft | 424 kts | 310° |
| 2026-05-05 17:53 | 56.14047 | -1.41129 | 32101 ft | 424 kts | 310° |
| 2026-05-05 17:54 | 56.18133 | -1.48755 | 32100 ft | 424 kts | 310° |
| 2026-05-05 17:54 | 56.22215 | -1.56392 | 32102 ft | 424 kts | 310° |
| 2026-05-05 17:55 | 56.26295 | -1.64050 | 32107 ft | 424 kts | 310° |
| 2026-05-05 17:55 | 56.30388 | -1.71767 | 32132 ft | 423 kts | 310° |
| 2026-05-05 17:56 | 56.34421 | -1.79389 | 32131 ft | 422 kts | 310° |
| 2026-05-05 17:56 | 56.38468 | -1.87063 | 32128 ft | 422 kts | 310° |
| 2026-05-05 17:57 | 56.42500 | -1.94740 | 32125 ft | 421 kts | 310° |
| 2026-05-05 17:57 | 56.46530 | -2.02427 | 32123 ft | 421 kts | 310° |
| 2026-05-05 17:58 | 56.50562 | -2.10133 | 32128 ft | 421 kts | 310° |
| 2026-05-05 17:58 | 56.54575 | -2.17844 | 32126 ft | 421 kts | 310° |
| 2026-05-05 17:59 | 56.58582 | -2.25578 | 32149 ft | 420 kts | 309° |
| 2026-05-05 17:59 | 56.62557 | -2.33264 | 32145 ft | 419 kts | 309° |
| 2026-05-05 18:00 | 56.66543 | -2.40993 | 32139 ft | 419 kts | 309° |
| 2026-05-05 18:00 | 56.70511 | -2.48728 | 32135 ft | 418 kts | 309° |
| 2026-05-05 18:01 | 56.74481 | -2.56470 | 32132 ft | 417 kts | 309° |
| 2026-05-05 18:01 | 56.78415 | -2.64174 | 32127 ft | 417 kts | 309° |
| 2026-05-05 18:02 | 56.82360 | -2.71935 | 32159 ft | 417 kts | 309° |
| 2026-05-05 18:02 | 56.86297 | -2.79710 | 32144 ft | 415 kts | 309° |
| 2026-05-05 18:03 | 56.90205 | -2.87461 | 32142 ft | 414 kts | 309° |
| 2026-05-05 18:03 | 56.94109 | -2.95213 | 32129 ft | 413 kts | 309° |
| 2026-05-05 18:04 | 56.98002 | -3.02960 | 32122 ft | 413 kts | 309° |
| 2026-05-05 18:04 | 57.01887 | -3.10724 | 32114 ft | 413 kts | 308° |
| 2026-05-05 18:05 | 57.05764 | -3.18512 | 32111 ft | 413 kts | 308° |
| 2026-05-05 18:05 | 57.09631 | -3.26312 | 32134 ft | 413 kts | 308° |
| 2026-05-05 18:06 | 57.13479 | -3.34068 | 32130 ft | 413 kts | 308° |
| 2026-05-05 18:06 | 57.17342 | -3.41885 | 32125 ft | 412 kts | 308° |
| 2026-05-05 18:07 | 57.21198 | -3.49738 | 32117 ft | 412 kts | 308° |
| 2026-05-05 18:07 | 57.25044 | -3.57580 | 32112 ft | 412 kts | 308° |
| 2026-05-05 18:08 | 57.28888 | -3.65438 | 32116 ft | 412 kts | 308° |
| 2026-05-05 18:08 | 57.32699 | -3.73260 | 32159 ft | 412 kts | 308° |
| 2026-05-05 18:09 | 57.36527 | -3.81143 | 32166 ft | 411 kts | 307° |
| 2026-05-05 18:09 | 57.40335 | -3.89020 | 32155 ft | 409 kts | 307° |
| 2026-05-05 18:10 | 57.44128 | -3.96891 | 32157 ft | 408 kts | 307° |
| 2026-05-05 18:10 | 57.47912 | -4.04766 | 32152 ft | 408 kts | 307° |
| 2026-05-05 18:11 | 57.51690 | -4.12648 | 32148 ft | 408 kts | 307° |
| 2026-05-05 18:11 | 57.55455 | -4.20541 | 32147 ft | 407 kts | 307° |
| 2026-05-05 18:12 | 57.59187 | -4.28399 | 32174 ft | 407 kts | 307° |
| 2026-05-05 18:12 | 57.62937 | -4.36305 | 32163 ft | 406 kts | 307° |
| 2026-05-05 18:13 | 57.66670 | -4.44211 | 32155 ft | 405 kts | 307° |
| 2026-05-05 18:13 | 57.70387 | -4.52107 | 32144 ft | 405 kts | 307° |
| 2026-05-05 18:14 | 57.73501 | -4.58733 | 32143 ft | 405 kts | 307° |
| 2026-05-05 18:14 | 57.77184 | -4.66599 | 32142 ft | 404 kts | 307° |
| 2026-05-05 18:15 | 57.80887 | -4.74553 | 32144 ft | 404 kts | 307° |
| 2026-05-05 18:15 | 57.84583 | -4.82519 | 32178 ft | 404 kts | 306° |
| 2026-05-05 18:16 | 57.88273 | -4.90482 | 32161 ft | 403 kts | 306° |
| 2026-05-05 18:16 | 57.91953 | -4.98447 | 32156 ft | 403 kts | 306° |
| 2026-05-05 18:17 | 57.95600 | -5.06363 | 32163 ft | 403 kts | 306° |
| 2026-05-05 18:17 | 57.99267 | -5.14357 | 32149 ft | 403 kts | 306° |
| 2026-05-05 18:18 | 58.02921 | -5.22366 | 32146 ft | 402 kts | 306° |
| 2026-05-05 18:18 | 58.06570 | -5.30389 | 32148 ft | 403 kts | 306° |
| 2026-05-05 18:19 | 58.10213 | -5.38424 | 32195 ft | 402 kts | 306° |
| 2026-05-05 18:19 | 58.13849 | -5.46460 | 32187 ft | 401 kts | 306° |
| 2026-05-05 18:20 | 58.17474 | -5.54488 | 32181 ft | 401 kts | 306° |
| 2026-05-05 18:20 | 58.21063 | -5.62477 | 32178 ft | 400 kts | 306° |
| 2026-05-05 18:21 | 58.24662 | -5.70520 | 32170 ft | 399 kts | 306° |
| 2026-05-05 18:21 | 58.28246 | -5.78566 | 32171 ft | 399 kts | 306° |
| 2026-05-05 18:22 | 58.31833 | -5.86637 | 32165 ft | 399 kts | 306° |
| 2026-05-05 18:22 | 58.35415 | -5.94723 | 32199 ft | 399 kts | 306° |
| 2026-05-05 18:23 | 58.38991 | -6.02817 | 32176 ft | 399 kts | 306° |
| 2026-05-05 18:23 | 58.42541 | -6.10884 | 32166 ft | 400 kts | 306° |
| 2026-05-05 18:24 | 58.46118 | -6.19028 | 32162 ft | 400 kts | 306° |
| 2026-05-05 18:24 | 58.49687 | -6.27200 | 32148 ft | 400 kts | 306° |
| 2026-05-05 18:25 | 58.53255 | -6.35407 | 32148 ft | 401 kts | 306° |
| 2026-05-05 18:25 | 58.56824 | -6.43646 | 32153 ft | 402 kts | 306° |
| 2026-05-05 18:26 | 58.60372 | -6.51855 | 32158 ft | 402 kts | 306° |
| 2026-05-05 18:26 | 58.63938 | -6.60123 | 32160 ft | 402 kts | 306° |
| 2026-05-05 18:27 | 58.67502 | -6.68411 | 32159 ft | 402 kts | 306° |
| 2026-05-05 18:27 | 58.71063 | -6.76723 | 32160 ft | 402 kts | 306° |
| 2026-05-05 18:28 | 58.76391 | -6.89217 | 32164 ft | 402 kts | 306° |
| 2026-05-05 18:28 | 58.79907 | -6.97526 | 32165 ft | 402 kts | 305° |
| 2026-05-05 18:29 | 58.83438 | -7.05899 | 32172 ft | 402 kts | 305° |
| 2026-05-05 18:29 | 58.86965 | -7.14280 | 32197 ft | 402 kts | 306° |
| 2026-05-05 18:30 | 58.90494 | -7.22679 | 32189 ft | 402 kts | 306° |
| 2026-05-05 18:30 | 58.94008 | -7.31095 | 32183 ft | 402 kts | 305° |
| 2026-05-05 18:31 | 58.97518 | -7.39521 | 32177 ft | 402 kts | 306° |
| 2026-05-05 18:31 | 59.01027 | -7.47966 | 32174 ft | 402 kts | 305° |
| 2026-05-05 18:32 | 59.04526 | -7.56423 | 32172 ft | 402 kts | 305° |
| 2026-05-05 18:32 | 59.08024 | -7.64902 | 32171 ft | 402 kts | 305° |
| 2026-05-05 18:33 | 59.11485 | -7.73353 | 32201 ft | 401 kts | 305° |
| 2026-05-05 18:33 | 59.14953 | -7.81839 | 32199 ft | 400 kts | 305° |
| 2026-05-05 18:34 | 59.18416 | -7.90313 | 32195 ft | 399 kts | 305° |
| 2026-05-05 18:34 | 59.21863 | -7.98812 | 32191 ft | 399 kts | 304° |
| 2026-05-05 18:35 | 59.25298 | -8.07316 | 32188 ft | 399 kts | 304° |
| 2026-05-05 18:35 | 59.28728 | -8.15835 | 32185 ft | 398 kts | 304° |
| 2026-05-05 18:36 | 59.32155 | -8.24358 | 32183 ft | 398 kts | 304° |
| 2026-05-05 18:36 | 59.35576 | -8.32894 | 32200 ft | 396 kts | 304° |
| 2026-05-05 18:37 | 59.38962 | -8.41384 | 32191 ft | 394 kts | 304° |
| 2026-05-05 18:37 | 59.42331 | -8.49873 | 32167 ft | 394 kts | 304° |
| 2026-05-05 18:38 | 59.45675 | -8.58318 | 32167 ft | 394 kts | 304° |
| 2026-05-05 18:38 | 59.49039 | -8.66842 | 32179 ft | 394 kts | 304° |
| 2026-05-05 18:39 | 59.52395 | -8.75377 | 32177 ft | 394 kts | 304° |
| 2026-05-05 18:39 | 59.55751 | -8.83945 | 32186 ft | 394 kts | 304° |
| 2026-05-05 18:40 | 59.59095 | -8.92511 | 32227 ft | 394 kts | 303° |
| 2026-05-05 18:40 | 59.62396 | -9.01015 | 32197 ft | 388 kts | 303° |
| 2026-05-05 18:41 | 59.65674 | -9.09490 | 32192 ft | 388 kts | 303° |
| 2026-05-05 18:41 | 59.68953 | -9.17979 | 32190 ft | 388 kts | 303° |
| 2026-05-05 18:42 | 59.72219 | -9.26475 | 32171 ft | 388 kts | 303° |
| 2026-05-05 18:42 | 59.75464 | -9.34957 | 32173 ft | 388 kts | 303° |
| 2026-05-05 18:43 | 59.78722 | -9.43498 | 32181 ft | 388 kts | 303° |
| 2026-05-05 18:43 | 59.81983 | -9.52053 | 32186 ft | 388 kts | 303° |
| 2026-05-05 18:44 | 59.85230 | -9.60598 | 32211 ft | 386 kts | 303° |
| 2026-05-05 18:44 | 59.88450 | -9.69113 | 32209 ft | 385 kts | 303° |
| 2026-05-05 18:45 | 59.91656 | -9.77644 | 32205 ft | 384 kts | 303° |
| 2026-05-05 18:45 | 59.94854 | -9.86179 | 32201 ft | 384 kts | 303° |
| 2026-05-05 18:46 | 59.98047 | -9.94748 | 32199 ft | 384 kts | 302° |
| 2026-05-05 18:46 | 60.01243 | -10.03214 | 32180 ft | 384 kts | 304° |
| 2026-05-05 18:47 | 60.04623 | -10.11523 | 32187 ft | 385 kts | 306° |
| 2026-05-05 18:47 | 60.08042 | -10.19769 | 32224 ft | 384 kts | 305° |
| 2026-05-05 18:48 | 60.11404 | -10.28028 | 32202 ft | 381 kts | 305° |
| 2026-05-05 18:48 | 60.14737 | -10.36322 | 32200 ft | 381 kts | 305° |
| 2026-05-05 18:49 | 60.18062 | -10.44608 | 32198 ft | 381 kts | 305° |
| 2026-05-05 18:49 | 60.21385 | -10.52918 | 32196 ft | 381 kts | 305° |
| 2026-05-05 18:50 | 60.24702 | -10.61232 | 32197 ft | 381 kts | 304° |
| 2026-05-05 18:50 | 60.27993 | -10.69507 | 32195 ft | 381 kts | 304° |
| 2026-05-05 18:51 | 60.31298 | -10.77859 | 32196 ft | 381 kts | 304° |
| 2026-05-05 18:51 | 60.34599 | -10.86223 | 32219 ft | 380 kts | 305° |
| 2026-05-05 18:52 | 60.37881 | -10.94574 | 32217 ft | 379 kts | 305° |
| 2026-05-05 18:52 | 60.41151 | -11.02912 | 32207 ft | 378 kts | 305° |
| 2026-05-05 18:53 | 60.44416 | -11.11265 | 32204 ft | 378 kts | 305° |
| 2026-05-05 18:53 | 60.47663 | -11.19630 | 32199 ft | 377 kts | 304° |
| 2026-05-05 18:54 | 60.50905 | -11.28017 | 32195 ft | 377 kts | 304° |
| 2026-05-05 18:54 | 60.54121 | -11.36344 | 32193 ft | 377 kts | 304° |
| 2026-05-05 18:55 | 60.57351 | -11.44741 | 32200 ft | 376 kts | 305° |
| 2026-05-05 18:55 | 60.60566 | -11.53133 | 32189 ft | 376 kts | 304° |
| 2026-05-05 18:56 | 60.63779 | -11.61538 | 32187 ft | 376 kts | 304° |
| 2026-05-05 18:56 | 60.66990 | -11.69957 | 32171 ft | 375 kts | 305° |
| 2026-05-05 18:57 | 60.70182 | -11.78371 | 32181 ft | 375 kts | 304° |
| 2026-05-05 18:57 | 60.73360 | -11.86790 | 32186 ft | 374 kts | 304° |
| 2026-05-05 18:58 | 60.76532 | -11.95227 | 32187 ft | 374 kts | 304° |
| 2026-05-05 18:58 | 60.79680 | -12.03619 | 32213 ft | 374 kts | 304° |
| 2026-05-05 18:59 | 60.82841 | -12.12096 | 32200 ft | 374 kts | 304° |
| 2026-05-05 18:59 | 60.85997 | -12.20583 | 32190 ft | 374 kts | 304° |
| 2026-05-05 19:00 | 60.89151 | -12.29081 | 32186 ft | 374 kts | 304° |
| 2026-05-05 19:00 | 60.92301 | -12.37592 | 32178 ft | 374 kts | 304° |
| 2026-05-05 19:01 | 60.95447 | -12.46132 | 32177 ft | 374 kts | 304° |
| 2026-05-05 19:01 | 60.98579 | -12.54688 | 32170 ft | 374 kts | 304° |
| 2026-05-05 19:02 | 61.01677 | -12.63179 | 32183 ft | 373 kts | 304° |
| 2026-05-05 19:02 | 61.04796 | -12.71726 | 32185 ft | 372 kts | 304° |
| 2026-05-05 19:03 | 61.07903 | -12.80281 | 32185 ft | 372 kts | 304° |
| 2026-05-05 19:03 | 61.10999 | -12.88840 | 32186 ft | 372 kts | 304° |
| 2026-05-05 19:04 | 61.14090 | -12.97420 | 32186 ft | 372 kts | 304° |
| 2026-05-05 19:04 | 61.16656 | -13.04570 | 32185 ft | 371 kts | 304° |
| 2026-05-05 19:05 | 61.20228 | -13.14566 | 32184 ft | 371 kts | 304° |
| 2026-05-05 19:05 | 61.23294 | -13.23188 | 32187 ft | 371 kts | 304° |
| 2026-05-05 19:06 | 61.25860 | -13.30412 | 32188 ft | 371 kts | 304° |
| 2026-05-05 19:06 | 61.28900 | -13.39012 | 32179 ft | 372 kts | 304° |
| 2026-05-05 19:07 | 61.31962 | -13.47691 | 32177 ft | 372 kts | 304° |
| 2026-05-05 19:07 | 61.35026 | -13.56394 | 32184 ft | 372 kts | 304° |
| 2026-05-05 19:08 | 61.38072 | -13.65124 | 32182 ft | 372 kts | 303° |
| 2026-05-05 19:08 | 61.41119 | -13.73873 | 32181 ft | 372 kts | 303° |
| 2026-05-05 19:09 | 61.44161 | -13.82642 | 32185 ft | 373 kts | 303° |
| 2026-05-05 19:09 | 61.47195 | -13.91419 | 32195 ft | 372 kts | 303° |
| 2026-05-05 19:10 | 61.50206 | -14.00164 | 32193 ft | 372 kts | 303° |
| 2026-05-05 19:10 | 61.53237 | -14.09008 | 32205 ft | 373 kts | 303° |
| 2026-05-05 19:11 | 61.56264 | -14.17866 | 32194 ft | 374 kts | 303° |
| 2026-05-05 19:11 | 61.59293 | -14.26752 | 32188 ft | 374 kts | 303° |
| 2026-05-05 19:12 | 61.62316 | -14.35654 | 32174 ft | 374 kts | 303° |
| 2026-05-05 19:12 | 61.65305 | -14.44506 | 32197 ft | 373 kts | 303° |
| 2026-05-05 19:13 | 61.68309 | -14.53409 | 32196 ft | 373 kts | 303° |
| 2026-05-05 19:13 | 61.71296 | -14.62326 | 32195 ft | 372 kts | 303° |
| 2026-05-05 19:14 | 61.74271 | -14.71253 | 32233 ft | 372 kts | 303° |
| 2026-05-05 19:14 | 61.77253 | -14.80209 | 32202 ft | 373 kts | 303° |
| 2026-05-05 19:15 | 61.80234 | -14.89211 | 32191 ft | 374 kts | 303° |
| 2026-05-05 19:15 | 61.83196 | -14.98177 | 32188 ft | 374 kts | 303° |
| 2026-05-05 19:16 | 61.86172 | -15.07230 | 32189 ft | 374 kts | 303° |
| 2026-05-05 19:16 | 61.89146 | -15.16307 | 32191 ft | 374 kts | 303° |
| 2026-05-05 19:17 | 61.92110 | -15.25396 | 32190 ft | 374 kts | 302° |
| 2026-05-05 19:17 | 61.95069 | -15.34503 | 32190 ft | 375 kts | 302° |
| 2026-05-05 19:18 | 61.98026 | -15.43633 | 32218 ft | 375 kts | 303° |
| 2026-05-05 19:18 | 62.00983 | -15.52808 | 32188 ft | 377 kts | 302° |
| 2026-05-05 19:19 | 62.03932 | -15.62002 | 32183 ft | 378 kts | 302° |
| 2026-05-05 19:19 | 62.06897 | -15.71279 | 32177 ft | 379 kts | 302° |
| 2026-05-05 19:20 | 62.09860 | -15.80582 | 32181 ft | 379 kts | 302° |
| 2026-05-05 19:20 | 62.12821 | -15.89921 | 32185 ft | 380 kts | 302° |
| 2026-05-05 19:21 | 62.15777 | -15.99281 | 32186 ft | 380 kts | 302° |
| 2026-05-05 19:21 | 62.18726 | -16.08667 | 32187 ft | 380 kts | 302° |
| 2026-05-05 19:22 | 62.21672 | -16.18080 | 32150 ft | 381 kts | 302° |
| 2026-05-05 19:22 | 62.24637 | -16.27554 | 32184 ft | 383 kts | 302° |
| 2026-05-05 19:23 | 62.27598 | -16.37071 | 32186 ft | 383 kts | 302° |
| 2026-05-05 19:23 | 62.30547 | -16.46585 | 32194 ft | 382 kts | 302° |
| 2026-05-05 19:24 | 62.33481 | -16.56132 | 32191 ft | 382 kts | 302° |
| 2026-05-05 19:24 | 62.36416 | -16.65685 | 32191 ft | 382 kts | 302° |
| 2026-05-05 19:25 | 62.39342 | -16.75262 | 32194 ft | 382 kts | 302° |
| 2026-05-05 19:25 | 62.42239 | -16.84784 | 32236 ft | 382 kts | 302° |
| 2026-05-05 19:26 | 62.45158 | -16.94424 | 32188 ft | 385 kts | 302° |
| 2026-05-05 19:26 | 62.48085 | -17.04129 | 32183 ft | 386 kts | 302° |
| 2026-05-05 19:27 | 62.51018 | -17.13885 | 32155 ft | 387 kts | 302° |
| 2026-05-05 19:27 | 62.53941 | -17.23669 | 32177 ft | 386 kts | 302° |
| 2026-05-05 19:28 | 62.56852 | -17.33458 | 32193 ft | 386 kts | 302° |
| 2026-05-05 19:28 | 62.59760 | -17.43245 | 32192 ft | 385 kts | 302° |
| 2026-05-05 19:29 | 62.62658 | -17.53030 | 32191 ft | 385 kts | 301° |
| 2026-05-05 19:29 | 62.65537 | -17.62795 | 32202 ft | 386 kts | 301° |
| 2026-05-05 19:30 | 62.68424 | -17.72666 | 32190 ft | 387 kts | 301° |
| 2026-05-05 19:30 | 62.71316 | -17.82603 | 32180 ft | 388 kts | 301° |
| 2026-05-05 19:31 | 62.74203 | -17.92569 | 32184 ft | 389 kts | 301° |
| 2026-05-05 19:31 | 62.77094 | -18.02559 | 32185 ft | 389 kts | 301° |
| 2026-05-05 19:32 | 62.79959 | -18.12512 | 32185 ft | 389 kts | 301° |
| 2026-05-05 19:32 | 62.82828 | -18.22541 | 32172 ft | 388 kts | 301° |
| 2026-05-05 19:33 | 62.85684 | -18.32560 | 32196 ft | 387 kts | 301° |
| 2026-05-05 19:33 | 62.88532 | -18.42606 | 32201 ft | 389 kts | 301° |
| 2026-05-05 19:34 | 62.91390 | -18.52714 | 32187 ft | 390 kts | 301° |
| 2026-05-05 19:35 | 62.95675 | -18.67955 | 32179 ft | 391 kts | 301° |
| 2026-05-05 19:35 | 62.98543 | -18.78138 | 32180 ft | 392 kts | 302° |
| 2026-05-05 19:36 | 63.01655 | -18.87908 | 32179 ft | 392 kts | 305° |
| 2026-05-05 19:36 | 63.03280 | -18.92687 | 31896 ft | 387 kts | 306° |
| 2026-05-05 19:36 | 63.04887 | -18.97402 | 31472 ft | 382 kts | 305° |
| 2026-05-05 19:36 | 63.06459 | -19.02075 | 31056 ft | 377 kts | 305° |
| 2026-05-05 19:37 | 63.07995 | -19.06712 | 30681 ft | 371 kts | 304° |
| 2026-05-05 19:37 | 63.09503 | -19.11326 | 30160 ft | 369 kts | 304° |
| 2026-05-05 19:37 | 63.10927 | -19.15710 | 29619 ft | 366 kts | 304° |
| 2026-05-05 19:37 | 63.12459 | -19.20440 | 29046 ft | 362 kts | 304° |
| 2026-05-05 19:38 | 63.13915 | -19.24935 | 28622 ft | 356 kts | 303° |
| 2026-05-05 19:38 | 63.15345 | -19.29361 | 28156 ft | 351 kts | 303° |
| 2026-05-05 19:38 | 63.16758 | -19.33749 | 27669 ft | 347 kts | 303° |
| 2026-05-05 19:38 | 63.18134 | -19.38037 | 27178 ft | 344 kts | 303° |
| 2026-05-05 19:39 | 63.19508 | -19.42333 | 26674 ft | 341 kts | 302° |
| 2026-05-05 19:39 | 63.20874 | -19.46596 | 26201 ft | 337 kts | 302° |
| 2026-05-05 19:39 | 63.22228 | -19.50824 | 25735 ft | 334 kts | 302° |
| 2026-05-05 19:39 | 63.23567 | -19.55012 | 25258 ft | 331 kts | 302° |
| 2026-05-05 19:40 | 63.24893 | -19.59165 | 24799 ft | 328 kts | 302° |
| 2026-05-05 19:40 | 63.26207 | -19.63291 | 24350 ft | 326 kts | 302° |
| 2026-05-05 19:40 | 63.27507 | -19.67385 | 23894 ft | 323 kts | 301° |
| 2026-05-05 19:40 | 63.28799 | -19.71457 | 23375 ft | 320 kts | 301° |
| 2026-05-05 19:41 | 63.30062 | -19.75447 | 22840 ft | 318 kts | 301° |
| 2026-05-05 19:41 | 63.31330 | -19.79454 | 22296 ft | 316 kts | 301° |
| 2026-05-05 19:41 | 63.32592 | -19.83451 | 21786 ft | 314 kts | 301° |
| 2026-05-05 19:41 | 63.33840 | -19.87414 | 21281 ft | 312 kts | 301° |
| 2026-05-05 19:42 | 63.35082 | -19.91362 | 20782 ft | 310 kts | 301° |
| 2026-05-05 19:42 | 63.36316 | -19.95304 | 20286 ft | 308 kts | 301° |
| 2026-05-05 19:42 | 63.37537 | -19.99219 | 19820 ft | 307 kts | 301° |
| 2026-05-05 19:42 | 63.38739 | -20.03058 | 19369 ft | 305 kts | 301° |
| 2026-05-05 19:43 | 63.39951 | -20.06921 | 19105 ft | 305 kts | 301° |
| 2026-05-05 19:43 | 63.41166 | -20.10804 | 18852 ft | 305 kts | 301° |
| 2026-05-05 19:43 | 63.42377 | -20.14689 | 18601 ft | 304 kts | 301° |
| 2026-05-05 19:43 | 63.43583 | -20.18570 | 18336 ft | 303 kts | 301° |
| 2026-05-05 19:44 | 63.44785 | -20.22443 | 18047 ft | 303 kts | 301° |
| 2026-05-05 19:44 | 63.45982 | -20.26313 | 17760 ft | 303 kts | 301° |
| 2026-05-05 19:44 | 63.47182 | -20.30197 | 17475 ft | 303 kts | 301° |
| 2026-05-05 19:44 | 63.48378 | -20.34072 | 17180 ft | 303 kts | 300° |
| 2026-05-05 19:45 | 63.49574 | -20.37951 | 16898 ft | 303 kts | 301° |
| 2026-05-05 19:45 | 63.50770 | -20.41834 | 16630 ft | 303 kts | 301° |
| 2026-05-05 19:45 | 63.51960 | -20.45721 | 16390 ft | 303 kts | 301° |
| 2026-05-05 19:45 | 63.53162 | -20.49664 | 16110 ft | 306 kts | 301° |
| 2026-05-05 19:46 | 63.54362 | -20.53598 | 15841 ft | 306 kts | 301° |
| 2026-05-05 19:46 | 63.55473 | -20.57668 | 15583 ft | 305 kts | 294° |
| 2026-05-05 19:46 | 63.56248 | -20.62069 | 15315 ft | 303 kts | 284° |
| 2026-05-05 19:46 | 63.56801 | -20.66609 | 14961 ft | 301 kts | 284° |
| 2026-05-05 19:47 | 63.57347 | -20.71088 | 14694 ft | 302 kts | 284° |
| 2026-05-05 19:47 | 63.57912 | -20.75711 | 14428 ft | 303 kts | 284° |
| 2026-05-05 19:47 | 63.58464 | -20.80225 | 14182 ft | 304 kts | 284° |
| 2026-05-05 19:47 | 63.59025 | -20.84804 | 13924 ft | 304 kts | 284° |
| 2026-05-05 19:48 | 63.59587 | -20.89381 | 13645 ft | 304 kts | 284° |
| 2026-05-05 19:48 | 63.60147 | -20.93969 | 13359 ft | 303 kts | 284° |
| 2026-05-05 19:48 | 63.60704 | -20.98539 | 13081 ft | 303 kts | 285° |
| 2026-05-05 19:48 | 63.61255 | -21.03108 | 12799 ft | 303 kts | 284° |
| 2026-05-05 19:49 | 63.61800 | -21.07673 | 12520 ft | 302 kts | 285° |
| 2026-05-05 19:49 | 63.62158 | -21.10674 | 12343 ft | 300 kts | 285° |
| 2026-05-05 19:49 | 63.62882 | -21.16735 | 11976 ft | 298 kts | 285° |
| 2026-05-05 19:49 | 63.63417 | -21.21223 | 11711 ft | 297 kts | 285° |
| 2026-05-05 19:50 | 63.63949 | -21.25706 | 11445 ft | 298 kts | 285° |
| 2026-05-05 19:50 | 63.64484 | -21.30225 | 11180 ft | 299 kts | 285° |
| 2026-05-05 19:50 | 63.65017 | -21.34758 | 10921 ft | 298 kts | 287° |
| 2026-05-05 19:50 | 63.65545 | -21.39251 | 10659 ft | 297 kts | 287° |
| 2026-05-05 19:51 | 63.66071 | -21.43746 | 10402 ft | 298 kts | 287° |
| 2026-05-05 19:51 | 63.66598 | -21.48267 | 10222 ft | 298 kts | 287° |
| 2026-05-05 19:51 | 63.67110 | -21.52686 | 10116 ft | 286 kts | 288° |
| 2026-05-05 19:51 | 63.67602 | -21.56946 | 9901 ft | 278 kts | 289° |
| 2026-05-05 19:52 | 63.68091 | -21.61151 | 9491 ft | 277 kts | 287° |
| 2026-05-05 19:52 | 63.68582 | -21.65372 | 9034 ft | 279 kts | 286° |
| 2026-05-05 19:52 | 63.69068 | -21.69550 | 8638 ft | 279 kts | 286° |
| 2026-05-05 19:52 | 63.69559 | -21.73787 | 8233 ft | 279 kts | 287° |
| 2026-05-05 19:53 | 63.70046 | -21.78026 | 7842 ft | 279 kts | 287° |
| 2026-05-05 19:53 | 63.70529 | -21.82260 | 7490 ft | 278 kts | 286° |
| 2026-05-05 19:53 | 63.71005 | -21.86461 | 7175 ft | 276 kts | 287° |
| 2026-05-05 19:53 | 63.71479 | -21.90650 | 6819 ft | 275 kts | 286° |
| 2026-05-05 19:54 | 63.71950 | -21.94823 | 6487 ft | 273 kts | 285° |
| 2026-05-05 19:54 | 63.72418 | -21.98962 | 6133 ft | 271 kts | 285° |
| 2026-05-05 19:54 | 63.72884 | -22.03089 | 5785 ft | 270 kts | 285° |
| 2026-05-05 19:54 | 63.73345 | -22.07193 | 5434 ft | 270 kts | 285° |
| 2026-05-05 19:55 | 63.73648 | -22.09916 | 5195 ft | 269 kts | 286° |
| 2026-05-05 19:55 | 63.74105 | -22.14036 | 4792 ft | 270 kts | 286° |
| 2026-05-05 19:55 | 63.74563 | -22.18150 | 4425 ft | 269 kts | 287° |
| 2026-05-05 19:55 | 63.75019 | -22.22257 | 4047 ft | 269 kts | 286° |
| 2026-05-05 19:56 | 63.75471 | -22.26342 | 3708 ft | 267 kts | 287° |
| 2026-05-05 19:56 | 63.75913 | -22.30350 | 3538 ft | 258 kts | 287° |
| 2026-05-05 19:56 | 63.76335 | -22.34192 | 3492 ft | 246 kts | 287° |
| 2026-05-05 19:56 | 63.76749 | -22.37909 | 3396 ft | 242 kts | 290° |
| 2026-05-05 19:57 | 63.77318 | -22.41462 | 3063 ft | 240 kts | 294° |
| 2026-05-05 19:57 | 63.77894 | -22.44991 | 2769 ft | 237 kts | 294° |
| 2026-05-05 19:57 | 63.78451 | -22.48428 | 2480 ft | 235 kts | 294° |
| 2026-05-05 19:57 | 63.79014 | -22.51915 | 2502 ft | 237 kts | 294° |
| 2026-05-05 19:58 | 63.79615 | -22.55272 | 2497 ft | 222 kts | 303° |
| 2026-05-05 19:58 | 63.80542 | -22.57925 | 2497 ft | 211 kts | 323° |
| 2026-05-05 19:58 | 63.81745 | -22.59695 | 2502 ft | 203 kts | 341° |
| 2026-05-05 19:58 | 63.83092 | -22.60505 | 2508 ft | 199 kts | 358° |
| 2026-05-05 19:59 | 63.84463 | -22.60557 | 2399 ft | 195 kts | 4° |
| 2026-05-05 19:59 | 63.85813 | -22.60554 | 2086 ft | 193 kts | 4° |
| 2026-05-05 19:59 | 63.87144 | -22.60553 | 1845 ft | 190 kts | 4° |
| 2026-05-05 19:59 | 63.88454 | -22.60552 | 1784 ft | 182 kts | 4° |
| 2026-05-05 20:00 | 63.89654 | -22.60556 | 1569 ft | 163 kts | 5° |
| 2026-05-05 20:00 | 63.90745 | -22.60556 | 1361 ft | 150 kts | 5° |
| 2026-05-05 20:00 | 63.91750 | -22.60556 | 1168 ft | 138 kts | 5° |
| 2026-05-05 20:00 | 63.92694 | -22.60553 | 960 ft | 134 kts | 5° |
| 2026-05-05 20:01 | 63.93613 | -22.60551 | 758 ft | 131 kts | 5° |
| 2026-05-05 20:01 | 63.94520 | -22.60549 | 586 ft | 130 kts | 5° |
| 2026-05-05 20:01 | 63.95432 | -22.60544 | 385 ft | 132 kts | 5° |
| 2026-05-05 20:01 | 63.96341 | -22.60540 | 215 ft | 130 kts | 4° |
| 2026-05-05 20:02 | 63.97195 | -22.60531 | 165 ft | 107 kts | 1° |
| 2026-05-05 20:02 | 63.97744 | -22.60523 | 172 ft | 62 kts | 2° |
| 2026-05-05 20:02 | 63.98060 | -22.60587 | 171 ft | 30 kts | 344° |
| 2026-05-05 20:02 | 63.98188 | -22.60707 | 169 ft | 19 kts | 325° |
| 2026-05-05 20:03 | 63.98301 | -22.60864 | 166 ft | 19 kts | 330° |
| 2026-05-05 20:03 | 63.98328 | -22.60900 | 166 ft | 0 kts | 330° |
| 2026-05-05 20:04 | 63.98329 | -22.60901 | 166 ft | 2 kts | 330° |
| 2026-05-05 20:04 | 63.98353 | -22.60927 | 166 ft | 4 kts | 341° |
| 2026-05-05 20:04 | 63.98384 | -22.60938 | 166 ft | 5 kts | 355° |
| 2026-05-05 20:05 | 63.98418 | -22.60940 | 166 ft | 5 kts | 358° |
| 2026-05-05 20:05 | 63.98450 | -22.60943 | 166 ft | 4 kts | 358° |
| 2026-05-05 20:05 | 63.98479 | -22.60945 | 170 ft | 4 kts | 359° |
| 2026-05-05 20:05 | 63.98509 | -22.60945 | 170 ft | 5 kts | 0° |
| 2026-05-05 20:06 | 63.98556 | -22.60944 | 169 ft | 8 kts | 1° |
| 2026-05-05 20:06 | 63.98624 | -22.60941 | 168 ft | 11 kts | 1° |
| 2026-05-05 20:06 | 63.98715 | -22.60938 | 166 ft | 15 kts | 360° |
| 2026-05-05 20:06 | 63.98827 | -22.60938 | 167 ft | 16 kts | 360° |
| 2026-05-05 20:07 | 63.98939 | -22.60938 | 171 ft | 16 kts | 0° |
| 2026-05-05 20:07 | 63.99058 | -22.60937 | 169 ft | 19 kts | 0° |
| 2026-05-05 20:07 | 63.99142 | -22.60946 | 165 ft | 10 kts | 342° |
| 2026-05-05 20:07 | 63.99172 | -22.61110 | 161 ft | 14 kts | 271° |
| 2026-05-05 20:08 | 63.99173 | -22.61362 | 155 ft | 18 kts | 270° |
| 2026-05-05 20:08 | 63.99175 | -22.61676 | 148 ft | 22 kts | 270° |
| 2026-05-05 20:08 | 63.99174 | -22.62050 | 143 ft | 25 kts | 270° |
| 2026-05-05 20:08 | 63.99175 | -22.62442 | 143 ft | 25 kts | 270° |
| 2026-05-05 20:09 | 63.99187 | -22.62644 | 143 ft | 9 kts | 322° |
| 2026-05-05 20:09 | 63.99249 | -22.62712 | 143 ft | 11 kts | 325° |
| 2026-05-05 20:09 | 63.99324 | -22.62746 | 143 ft | 12 kts | 360° |
| 2026-05-05 20:09 | 63.99395 | -22.62715 | 143 ft | 7 kts | 17° |
| 2026-05-05 20:10 | 63.99399 | -22.62664 | 143 ft | 4 kts | 117° |
| 2026-05-05 20:10 | 63.99387 | -22.62610 | 143 ft | 4 kts | 118° |
| 2026-05-05 20:10 | 63.99377 | -22.62569 | 143 ft | 0 kts | 118° |
| 2026-05-05 20:10 | 63.99376 | -22.62566 | 143 ft | 0 kts | 118° |
| 2026-05-05 20:11 | 63.99375 | -22.62559 | 143 ft | 1 kts | 118° |
| 2026-05-05 20:11 | 63.99373 | -22.62549 | 143 ft | 1 kts | 118° |
| 2026-05-05 20:11 | 63.99372 | -22.62546 | 143 ft | 0 kts | 118° |